sensor_id;sensor_type;location;lat;lon;timestamp;P1;durP1;ratioP1;P2;durP2;ratioP2
19651;SDS011;9974;52.146;14.668;2023-04-03T00:01:12;13.13;;;3.20;;
19651;SDS011;9974;52.146;14.668;2023-04-03T00:03:39;9.57;;;3.17;;
19651;SDS011;9974;52.146;14.668;2023-04-03T00:06:06;6.80;;;2.03;;
19651;SDS011;9974;52.146;14.668;2023-04-03T00:08:33;9.23;;;2.87;;
19651;SDS011;9974;52.146;14.668;2023-04-03T00:11:00;5.70;;;2.33;;
19651;SDS011;9974;52.146;14.668;2023-04-03T00:13:27;7.73;;;2.53;;
19651;SDS011;9974;52.146;14.668;2023-04-03T00:15:53;4.87;;;2.00;;
19651;SDS011;9974;52.146;14.668;2023-04-03T00:18:19;6.93;;;2.30;;
19651;SDS011;9974;52.146;14.668;2023-04-03T00:20:46;7.27;;;2.00;;
19651;SDS011;9974;52.146;14.668;2023-04-03T00:23:12;11.20;;;2.43;;
19651;SDS011;9974;52.146;14.668;2023-04-03T00:25:38;7.17;;;2.17;;
19651;SDS011;9974;52.146;14.668;2023-04-03T00:28:05;8.90;;;1.97;;
19651;SDS011;9974;52.146;14.668;2023-04-03T00:30:31;6.33;;;1.93;;
19651;SDS011;9974;52.146;14.668;2023-04-03T00:32:57;5.13;;;1.93;;
19651;SDS011;9974;52.146;14.668;2023-04-03T00:35:23;5.23;;;1.93;;
19651;SDS011;9974;52.146;14.668;2023-04-03T00:37:51;3.73;;;2.03;;
19651;SDS011;9974;52.146;14.668;2023-04-03T00:40:18;8.10;;;2.27;;
19651;SDS011;9974;52.146;14.668;2023-04-03T00:42:45;6.20;;;2.53;;
19651;SDS011;9974;52.146;14.668;2023-04-03T00:45:22;9.37;;;2.43;;
19651;SDS011;9974;52.146;14.668;2023-04-03T00:47:50;5.70;;;1.60;;
19651;SDS011;9974;52.146;14.668;2023-04-03T00:50:17;7.57;;;2.30;;
19651;SDS011;9974;52.146;14.668;2023-04-03T00:52:43;6.00;;;2.07;;
19651;SDS011;9974;52.146;14.668;2023-04-03T00:55:11;2.67;;;1.40;;
19651;SDS011;9974;52.146;14.668;2023-04-03T00:57:38;7.00;;;2.00;;
19651;SDS011;9974;52.146;14.668;2023-04-03T01:00:07;7.67;;;2.20;;
19651;SDS011;9974;52.146;14.668;2023-04-03T01:02:35;5.77;;;1.90;;
19651;SDS011;9974;52.146;14.668;2023-04-03T01:05:01;6.70;;;1.90;;
19651;SDS011;9974;52.146;14.668;2023-04-03T01:07:29;8.90;;;2.20;;
19651;SDS011;9974;52.146;14.668;2023-04-03T01:09:56;5.27;;;2.57;;
19651;SDS011;9974;52.146;14.668;2023-04-03T01:12:37;8.87;;;1.80;;
19651;SDS011;9974;52.146;14.668;2023-04-03T01:15:12;8.63;;;2.37;;
19651;SDS011;9974;52.146;14.668;2023-04-03T01:17:42;4.17;;;2.20;;
19651;SDS011;9974;52.146;14.668;2023-04-03T01:23:10;5.13;;;1.80;;
19651;SDS011;9974;52.146;14.668;2023-04-03T01:25:49;8.87;;;2.30;;
19651;SDS011;9974;52.146;14.668;2023-04-03T01:33:38;7.03;;;2.30;;
19651;SDS011;9974;52.146;14.668;2023-04-03T01:36:04;4.40;;;1.93;;
19651;SDS011;9974;52.146;14.668;2023-04-03T01:38:31;6.60;;;1.63;;
19651;SDS011;9974;52.146;14.668;2023-04-03T01:40:57;10.40;;;2.20;;
19651;SDS011;9974;52.146;14.668;2023-04-03T01:43:23;7.40;;;1.97;;
19651;SDS011;9974;52.146;14.668;2023-04-03T01:45:49;10.90;;;1.90;;
19651;SDS011;9974;52.146;14.668;2023-04-03T01:48:17;10.30;;;3.00;;
19651;SDS011;9974;52.146;14.668;2023-04-03T01:50:43;8.57;;;1.90;;
19651;SDS011;9974;52.146;14.668;2023-04-03T01:53:09;10.00;;;2.20;;
19651;SDS011;9974;52.146;14.668;2023-04-03T01:55:35;10.17;;;2.37;;
19651;SDS011;9974;52.146;14.668;2023-04-03T01:58:01;10.77;;;1.90;;
19651;SDS011;9974;52.146;14.668;2023-04-03T02:00:27;4.87;;;1.73;;
19651;SDS011;9974;52.146;14.668;2023-04-03T02:02:53;8.47;;;2.30;;
19651;SDS011;9974;52.146;14.668;2023-04-03T02:05:20;5.13;;;2.10;;
19651;SDS011;9974;52.146;14.668;2023-04-03T02:07:46;6.73;;;2.13;;
19651;SDS011;9974;52.146;14.668;2023-04-03T02:10:12;6.03;;;2.03;;
19651;SDS011;9974;52.146;14.668;2023-04-03T02:12:38;9.70;;;2.73;;
19651;SDS011;9974;52.146;14.668;2023-04-03T02:15:04;9.20;;;2.40;;
19651;SDS011;9974;52.146;14.668;2023-04-03T02:17:30;4.40;;;1.83;;
19651;SDS011;9974;52.146;14.668;2023-04-03T02:19:56;7.20;;;2.00;;
19651;SDS011;9974;52.146;14.668;2023-04-03T02:22:23;8.80;;;2.20;;
19651;SDS011;9974;52.146;14.668;2023-04-03T02:24:49;4.97;;;2.30;;
19651;SDS011;9974;52.146;14.668;2023-04-03T02:27:16;10.70;;;2.63;;
19651;SDS011;9974;52.146;14.668;2023-04-03T02:29:42;6.43;;;2.20;;
19651;SDS011;9974;52.146;14.668;2023-04-03T02:32:08;10.20;;;2.20;;
19651;SDS011;9974;52.146;14.668;2023-04-03T02:34:34;6.57;;;2.70;;
19651;SDS011;9974;52.146;14.668;2023-04-03T02:37:00;7.13;;;2.67;;
19651;SDS011;9974;52.146;14.668;2023-04-03T02:39:26;7.53;;;2.00;;
19651;SDS011;9974;52.146;14.668;2023-04-03T02:41:53;7.30;;;1.93;;
19651;SDS011;9974;52.146;14.668;2023-04-03T02:44:19;6.50;;;1.90;;
19651;SDS011;9974;52.146;14.668;2023-04-03T02:46:45;7.33;;;2.83;;
19651;SDS011;9974;52.146;14.668;2023-04-03T02:49:11;7.33;;;2.60;;
19651;SDS011;9974;52.146;14.668;2023-04-03T02:51:37;10.27;;;2.60;;
19651;SDS011;9974;52.146;14.668;2023-04-03T02:54:03;11.00;;;2.40;;
19651;SDS011;9974;52.146;14.668;2023-04-03T02:56:29;9.43;;;2.60;;
19651;SDS011;9974;52.146;14.668;2023-04-03T02:58:55;6.87;;;2.17;;
19651;SDS011;9974;52.146;14.668;2023-04-03T03:01:22;8.83;;;2.07;;
19651;SDS011;9974;52.146;14.668;2023-04-03T03:03:48;7.80;;;2.60;;
19651;SDS011;9974;52.146;14.668;2023-04-03T03:06:14;9.73;;;2.30;;
19651;SDS011;9974;52.146;14.668;2023-04-03T03:08:41;8.73;;;2.03;;
19651;SDS011;9974;52.146;14.668;2023-04-03T03:11:08;7.23;;;2.40;;
19651;SDS011;9974;52.146;14.668;2023-04-03T03:13:35;4.47;;;2.20;;
19651;SDS011;9974;52.146;14.668;2023-04-03T03:16:01;7.93;;;2.30;;
19651;SDS011;9974;52.146;14.668;2023-04-03T03:18:28;10.57;;;2.10;;
19651;SDS011;9974;52.146;14.668;2023-04-03T03:20:55;7.80;;;2.50;;
19651;SDS011;9974;52.146;14.668;2023-04-03T03:23:22;8.80;;;3.07;;
19651;SDS011;9974;52.146;14.668;2023-04-03T03:25:54;7.50;;;2.20;;
19651;SDS011;9974;52.146;14.668;2023-04-03T03:28:24;7.70;;;2.30;;
19651;SDS011;9974;52.146;14.668;2023-04-03T03:30:50;6.53;;;1.70;;
19651;SDS011;9974;52.146;14.668;2023-04-03T03:33:17;8.50;;;1.70;;
19651;SDS011;9974;52.146;14.668;2023-04-03T03:35:43;5.30;;;2.50;;
19651;SDS011;9974;52.146;14.668;2023-04-03T03:38:10;11.10;;;2.97;;
19651;SDS011;9974;52.146;14.668;2023-04-03T03:40:36;6.30;;;2.13;;
19651;SDS011;9974;52.146;14.668;2023-04-03T03:43:02;8.97;;;2.33;;
19651;SDS011;9974;52.146;14.668;2023-04-03T03:45:28;12.97;;;2.27;;
19651;SDS011;9974;52.146;14.668;2023-04-03T03:47:55;10.43;;;2.77;;
19651;SDS011;9974;52.146;14.668;2023-04-03T03:50:21;12.40;;;2.20;;
19651;SDS011;9974;52.146;14.668;2023-04-03T03:52:47;5.63;;;1.80;;
19651;SDS011;9974;52.146;14.668;2023-04-03T03:55:13;10.03;;;2.03;;
19651;SDS011;9974;52.146;14.668;2023-04-03T03:57:39;6.23;;;2.23;;
19651;SDS011;9974;52.146;14.668;2023-04-03T04:00:05;7.07;;;2.03;;
19651;SDS011;9974;52.146;14.668;2023-04-03T04:02:32;7.13;;;1.93;;
19651;SDS011;9974;52.146;14.668;2023-04-03T04:04:58;6.47;;;2.07;;
19651;SDS011;9974;52.146;14.668;2023-04-03T04:07:24;7.40;;;2.33;;
19651;SDS011;9974;52.146;14.668;2023-04-03T04:09:52;3.70;;;1.70;;
19651;SDS011;9974;52.146;14.668;2023-04-03T04:12:19;6.80;;;2.27;;
19651;SDS011;9974;52.146;14.668;2023-04-03T04:14:45;9.43;;;2.57;;
19651;SDS011;9974;52.146;14.668;2023-04-03T04:17:12;9.80;;;2.33;;
19651;SDS011;9974;52.146;14.668;2023-04-03T04:19:38;8.67;;;1.70;;
19651;SDS011;9974;52.146;14.668;2023-04-03T04:22:04;9.37;;;2.03;;
19651;SDS011;9974;52.146;14.668;2023-04-03T04:24:30;8.93;;;1.87;;
19651;SDS011;9974;52.146;14.668;2023-04-03T04:26:57;6.80;;;1.73;;
19651;SDS011;9974;52.146;14.668;2023-04-03T04:29:23;13.57;;;3.17;;
19651;SDS011;9974;52.146;14.668;2023-04-03T04:31:49;9.77;;;2.30;;
19651;SDS011;9974;52.146;14.668;2023-04-03T04:34:15;9.87;;;2.77;;
19651;SDS011;9974;52.146;14.668;2023-04-03T04:36:41;9.40;;;2.13;;
19651;SDS011;9974;52.146;14.668;2023-04-03T04:39:07;14.30;;;2.33;;
19651;SDS011;9974;52.146;14.668;2023-04-03T04:41:34;11.17;;;2.23;;
19651;SDS011;9974;52.146;14.668;2023-04-03T04:44:00;6.10;;;2.17;;
19651;SDS011;9974;52.146;14.668;2023-04-03T04:46:26;8.87;;;2.20;;
19651;SDS011;9974;52.146;14.668;2023-04-03T04:48:52;8.07;;;2.10;;
19651;SDS011;9974;52.146;14.668;2023-04-03T04:51:18;8.93;;;2.10;;
19651;SDS011;9974;52.146;14.668;2023-04-03T04:53:44;5.77;;;2.37;;
19651;SDS011;9974;52.146;14.668;2023-04-03T04:56:11;10.50;;;2.13;;
19651;SDS011;9974;52.146;14.668;2023-04-03T04:58:37;8.07;;;1.80;;
19651;SDS011;9974;52.146;14.668;2023-04-03T05:01:04;5.53;;;1.50;;
19651;SDS011;9974;52.146;14.668;2023-04-03T05:03:31;8.63;;;1.77;;
19651;SDS011;9974;52.146;14.668;2023-04-03T05:05:57;11.67;;;2.27;;
19651;SDS011;9974;52.146;14.668;2023-04-03T05:08:24;8.90;;;1.90;;
19651;SDS011;9974;52.146;14.668;2023-04-03T05:10:50;4.40;;;1.77;;
19651;SDS011;9974;52.146;14.668;2023-04-03T05:13:16;5.70;;;1.97;;
19651;SDS011;9974;52.146;14.668;2023-04-03T05:15:42;4.63;;;1.77;;
19651;SDS011;9974;52.146;14.668;2023-04-03T05:18:08;5.73;;;1.87;;
19651;SDS011;9974;52.146;14.668;2023-04-03T05:20:34;2.73;;;1.70;;
19651;SDS011;9974;52.146;14.668;2023-04-03T05:23:01;8.13;;;2.03;;
19651;SDS011;9974;52.146;14.668;2023-04-03T05:25:28;7.40;;;1.97;;
19651;SDS011;9974;52.146;14.668;2023-04-03T05:27:54;6.43;;;2.23;;
19651;SDS011;9974;52.146;14.668;2023-04-03T05:30:20;9.47;;;2.80;;
19651;SDS011;9974;52.146;14.668;2023-04-03T05:32:46;7.23;;;1.60;;
19651;SDS011;9974;52.146;14.668;2023-04-03T05:35:12;12.00;;;2.30;;
19651;SDS011;9974;52.146;14.668;2023-04-03T05:37:38;6.43;;;1.87;;
19651;SDS011;9974;52.146;14.668;2023-04-03T05:40:05;8.43;;;1.83;;
19651;SDS011;9974;52.146;14.668;2023-04-03T05:42:32;5.10;;;1.50;;
19651;SDS011;9974;52.146;14.668;2023-04-03T05:44:58;4.10;;;1.97;;
19651;SDS011;9974;52.146;14.668;2023-04-03T05:47:24;9.70;;;2.63;;
19651;SDS011;9974;52.146;14.668;2023-04-03T05:49:50;5.37;;;2.00;;
19651;SDS011;9974;52.146;14.668;2023-04-03T05:52:23;6.80;;;2.13;;
19651;SDS011;9974;52.146;14.668;2023-04-03T05:54:52;4.47;;;1.67;;
19651;SDS011;9974;52.146;14.668;2023-04-03T05:57:18;3.40;;;1.53;;
19651;SDS011;9974;52.146;14.668;2023-04-03T05:59:45;9.20;;;2.17;;
19651;SDS011;9974;52.146;14.668;2023-04-03T06:02:12;5.67;;;1.47;;
19651;SDS011;9974;52.146;14.668;2023-04-03T06:04:41;3.63;;;1.70;;
19651;SDS011;9974;52.146;14.668;2023-04-03T06:07:10;4.13;;;2.03;;
19651;SDS011;9974;52.146;14.668;2023-04-03T06:09:37;4.70;;;1.20;;
19651;SDS011;9974;52.146;14.668;2023-04-03T06:12:03;5.37;;;1.87;;
19651;SDS011;9974;52.146;14.668;2023-04-03T06:14:29;8.03;;;1.87;;
19651;SDS011;9974;52.146;14.668;2023-04-03T06:16:55;6.40;;;2.20;;
19651;SDS011;9974;52.146;14.668;2023-04-03T06:19:22;4.10;;;1.57;;
19651;SDS011;9974;52.146;14.668;2023-04-03T06:21:48;2.50;;;1.30;;
19651;SDS011;9974;52.146;14.668;2023-04-03T06:24:15;5.63;;;1.50;;
19651;SDS011;9974;52.146;14.668;2023-04-03T06:26:42;10.13;;;1.77;;
19651;SDS011;9974;52.146;14.668;2023-04-03T06:29:08;3.43;;;1.40;;
19651;SDS011;9974;52.146;14.668;2023-04-03T06:31:35;5.97;;;1.57;;
19651;SDS011;9974;52.146;14.668;2023-04-03T06:34:04;5.77;;;1.60;;
19651;SDS011;9974;52.146;14.668;2023-04-03T06:36:31;2.93;;;1.27;;
19651;SDS011;9974;52.146;14.668;2023-04-03T06:38:57;4.50;;;1.33;;
19651;SDS011;9974;52.146;14.668;2023-04-03T06:41:23;6.90;;;1.83;;
19651;SDS011;9974;52.146;14.668;2023-04-03T06:43:51;7.53;;;1.60;;
19651;SDS011;9974;52.146;14.668;2023-04-03T06:46:17;4.77;;;1.40;;
19651;SDS011;9974;52.146;14.668;2023-04-03T06:48:45;4.83;;;1.50;;
19651;SDS011;9974;52.146;14.668;2023-04-03T06:51:25;11.53;;;1.73;;
19651;SDS011;9974;52.146;14.668;2023-04-03T06:53:55;4.80;;;1.10;;
19651;SDS011;9974;52.146;14.668;2023-04-03T06:56:22;6.90;;;1.70;;
19651;SDS011;9974;52.146;14.668;2023-04-03T06:58:48;6.00;;;2.17;;
19651;SDS011;9974;52.146;14.668;2023-04-03T07:01:16;1.83;;;1.20;;
19651;SDS011;9974;52.146;14.668;2023-04-03T07:03:44;5.63;;;2.10;;
19651;SDS011;9974;52.146;14.668;2023-04-03T07:06:11;4.37;;;1.53;;
19651;SDS011;9974;52.146;14.668;2023-04-03T07:08:38;4.77;;;1.50;;
19651;SDS011;9974;52.146;14.668;2023-04-03T07:11:05;5.70;;;1.47;;
19651;SDS011;9974;52.146;14.668;2023-04-03T07:13:31;8.73;;;1.50;;
19651;SDS011;9974;52.146;14.668;2023-04-03T07:15:57;9.18;;;1.58;;
19651;SDS011;9974;52.146;14.668;2023-04-03T07:18:23;2.90;;;1.60;;
19651;SDS011;9974;52.146;14.668;2023-04-03T07:20:50;4.90;;;1.40;;
19651;SDS011;9974;52.146;14.668;2023-04-03T07:23:16;5.80;;;1.40;;
19651;SDS011;9974;52.146;14.668;2023-04-03T07:25:43;6.23;;;1.27;;
19651;SDS011;9974;52.146;14.668;2023-04-03T07:28:10;3.33;;;1.60;;
19651;SDS011;9974;52.146;14.668;2023-04-03T07:30:49;3.47;;;1.23;;
19651;SDS011;9974;52.146;14.668;2023-04-03T07:33:17;4.70;;;1.40;;
19651;SDS011;9974;52.146;14.668;2023-04-03T07:35:45;4.45;;;1.52;;
19651;SDS011;9974;52.146;14.668;2023-04-03T07:38:11;3.00;;;1.15;;
19651;SDS011;9974;52.146;14.668;2023-04-03T07:40:37;4.57;;;1.45;;
19651;SDS011;9974;52.146;14.668;2023-04-03T07:43:04;4.50;;;1.10;;
19651;SDS011;9974;52.146;14.668;2023-04-03T07:45:30;5.20;;;0.80;;
19651;SDS011;9974;52.146;14.668;2023-04-03T07:47:56;4.43;;;1.40;;
19651;SDS011;9974;52.146;14.668;2023-04-03T07:50:23;5.93;;;1.13;;
19651;SDS011;9974;52.146;14.668;2023-04-03T07:52:49;3.83;;;1.20;;
19651;SDS011;9974;52.146;14.668;2023-04-03T07:55:15;4.90;;;1.10;;
19651;SDS011;9974;52.146;14.668;2023-04-03T07:57:42;3.30;;;1.05;;
19651;SDS011;9974;52.146;14.668;2023-04-03T08:00:08;3.25;;;1.13;;
19651;SDS011;9974;52.146;14.668;2023-04-03T08:02:35;5.75;;;1.00;;
19651;SDS011;9974;52.146;14.668;2023-04-03T08:05:02;3.22;;;0.82;;
19651;SDS011;9974;52.146;14.668;2023-04-03T08:07:28;0.82;;;0.45;;
19651;SDS011;9974;52.146;14.668;2023-04-03T08:09:54;2.53;;;0.85;;
19651;SDS011;9974;52.146;14.668;2023-04-03T08:12:20;1.55;;;0.70;;
19651;SDS011;9974;52.146;14.668;2023-04-03T08:14:46;3.05;;;0.90;;
19651;SDS011;9974;52.146;14.668;2023-04-03T08:17:13;2.85;;;0.80;;
19651;SDS011;9974;52.146;14.668;2023-04-03T08:19:39;4.38;;;1.13;;
19651;SDS011;9974;52.146;14.668;2023-04-03T08:22:05;2.75;;;1.08;;
19651;SDS011;9974;52.146;14.668;2023-04-03T08:24:32;3.00;;;1.02;;
19651;SDS011;9974;52.146;14.668;2023-04-03T08:26:58;3.42;;;1.00;;
19651;SDS011;9974;52.146;14.668;2023-04-03T08:29:24;1.30;;;0.63;;
19651;SDS011;9974;52.146;14.668;2023-04-03T08:31:51;3.35;;;0.93;;
19651;SDS011;9974;52.146;14.668;2023-04-03T08:34:17;4.25;;;0.98;;
19651;SDS011;9974;52.146;14.668;2023-04-03T08:36:44;3.22;;;0.90;;
19651;SDS011;9974;52.146;14.668;2023-04-03T08:39:10;3.03;;;1.05;;
19651;SDS011;9974;52.146;14.668;2023-04-03T08:44:12;3.65;;;1.15;;
19651;SDS011;9974;52.146;14.668;2023-04-03T08:50:01;5.18;;;1.20;;
19651;SDS011;9974;52.146;14.668;2023-04-03T08:52:39;2.75;;;1.20;;
19651;SDS011;9974;52.146;14.668;2023-04-03T08:57:48;1.70;;;0.90;;
19651;SDS011;9974;52.146;14.668;2023-04-03T09:00:22;4.45;;;1.08;;
19651;SDS011;9974;52.146;14.668;2023-04-03T09:02:50;3.35;;;0.98;;
19651;SDS011;9974;52.146;14.668;2023-04-03T09:05:18;1.83;;;0.70;;
19651;SDS011;9974;52.146;14.668;2023-04-03T09:07:54;2.63;;;0.93;;
19651;SDS011;9974;52.146;14.668;2023-04-03T09:10:29;2.90;;;1.00;;
19651;SDS011;9974;52.146;14.668;2023-04-03T09:13:02;3.15;;;0.90;;
19651;SDS011;9974;52.146;14.668;2023-04-03T09:15:44;3.03;;;1.10;;
19651;SDS011;9974;52.146;14.668;2023-04-03T09:18:18;6.80;;;1.38;;
19651;SDS011;9974;52.146;14.668;2023-04-03T09:20:49;2.00;;;0.93;;
19651;SDS011;9974;52.146;14.668;2023-04-03T09:23:28;4.75;;;1.15;;
19651;SDS011;9974;52.146;14.668;2023-04-03T09:26:13;3.95;;;1.25;;
19651;SDS011;9974;52.146;14.668;2023-04-03T09:28:44;6.18;;;1.00;;
19651;SDS011;9974;52.146;14.668;2023-04-03T09:31:23;1.80;;;0.70;;
19651;SDS011;9974;52.146;14.668;2023-04-03T09:36:50;6.03;;;1.30;;
19651;SDS011;9974;52.146;14.668;2023-04-03T09:39:21;4.78;;;1.45;;
19651;SDS011;9974;52.146;14.668;2023-04-03T09:44:28;3.47;;;1.00;;
19651;SDS011;9974;52.146;14.668;2023-04-03T09:46:57;4.32;;;1.08;;
19651;SDS011;9974;52.146;14.668;2023-04-03T09:49:23;3.20;;;0.88;;
19651;SDS011;9974;52.146;14.668;2023-04-03T09:51:50;2.35;;;1.15;;
19651;SDS011;9974;52.146;14.668;2023-04-03T09:54:36;7.05;;;1.23;;
19651;SDS011;9974;52.146;14.668;2023-04-03T09:57:12;4.68;;;1.25;;
19651;SDS011;9974;52.146;14.668;2023-04-03T09:59:43;3.20;;;1.13;;
19651;SDS011;9974;52.146;14.668;2023-04-03T10:05:00;5.22;;;1.00;;
19651;SDS011;9974;52.146;14.668;2023-04-03T10:07:36;2.20;;;0.93;;
19651;SDS011;9974;52.146;14.668;2023-04-03T10:10:24;1.67;;;0.63;;
19651;SDS011;9974;52.146;14.668;2023-04-03T10:15:52;5.72;;;0.98;;
19651;SDS011;9974;52.146;14.668;2023-04-03T10:18:44;5.47;;;1.10;;
19651;SDS011;9974;52.146;14.668;2023-04-03T10:24:11;4.15;;;1.00;;
19651;SDS011;9974;52.146;14.668;2023-04-03T10:29:21;4.50;;;1.05;;
19651;SDS011;9974;52.146;14.668;2023-04-03T10:32:02;4.25;;;1.13;;
19651;SDS011;9974;52.146;14.668;2023-04-03T10:34:41;3.22;;;0.90;;
19651;SDS011;9974;52.146;14.668;2023-04-03T10:37:25;4.85;;;0.88;;
19651;SDS011;9974;52.146;14.668;2023-04-03T10:39:57;3.50;;;1.17;;
19651;SDS011;9974;52.146;14.668;2023-04-03T10:50:26;3.03;;;0.93;;
19651;SDS011;9974;52.146;14.668;2023-04-03T10:53:11;2.33;;;1.20;;
19651;SDS011;9974;52.146;14.668;2023-04-03T10:59:02;2.70;;;1.20;;
19651;SDS011;9974;52.146;14.668;2023-04-03T11:01:52;1.95;;;0.73;;
19651;SDS011;9974;52.146;14.668;2023-04-03T11:04:20;3.05;;;1.00;;
19651;SDS011;9974;52.146;14.668;2023-04-03T11:06:53;2.50;;;0.80;;
19651;SDS011;9974;52.146;14.668;2023-04-03T11:09:26;3.25;;;1.05;;
19651;SDS011;9974;52.146;14.668;2023-04-03T11:12:49;5.15;;;1.02;;
19651;SDS011;9974;52.146;14.668;2023-04-03T11:14:50;6.70;;;1.23;;
19651;SDS011;9974;52.146;14.668;2023-04-03T11:19:52;2.13;;;0.82;;
19651;SDS011;9974;52.146;14.668;2023-04-03T11:22:41;4.28;;;0.80;;
19651;SDS011;9974;52.146;14.668;2023-04-03T11:27:44;2.63;;;1.00;;
19651;SDS011;9974;52.146;14.668;2023-04-03T11:30:17;4.43;;;1.00;;
19651;SDS011;9974;52.146;14.668;2023-04-03T11:32:57;2.60;;;1.00;;
19651;SDS011;9974;52.146;14.668;2023-04-03T11:35:26;3.42;;;0.95;;
19651;SDS011;9974;52.146;14.668;2023-04-03T11:37:53;2.50;;;1.30;;
19651;SDS011;9974;52.146;14.668;2023-04-03T11:40:21;4.72;;;1.35;;
19651;SDS011;9974;52.146;14.668;2023-04-03T11:42:53;3.78;;;1.02;;
19651;SDS011;9974;52.146;14.668;2023-04-03T11:48:50;1.38;;;0.85;;
19651;SDS011;9974;52.146;14.668;2023-04-03T11:50:54;1.60;;;0.98;;
19651;SDS011;9974;52.146;14.668;2023-04-03T11:53:32;2.72;;;1.17;;
19651;SDS011;9974;52.146;14.668;2023-04-03T12:04:17;3.95;;;1.52;;
19651;SDS011;9974;52.146;14.668;2023-04-03T12:09:34;6.85;;;2.28;;
19651;SDS011;9974;52.146;14.668;2023-04-03T12:12:26;4.65;;;1.40;;
19651;SDS011;9974;52.146;14.668;2023-04-03T12:14:53;6.15;;;1.42;;
19651;SDS011;9974;52.146;14.668;2023-04-03T12:17:21;3.25;;;1.35;;
19651;SDS011;9974;52.146;14.668;2023-04-03T12:19:51;3.75;;;0.95;;
19651;SDS011;9974;52.146;14.668;2023-04-03T12:22:18;2.70;;;1.00;;
19651;SDS011;9974;52.146;14.668;2023-04-03T12:24:50;2.75;;;1.15;;
19651;SDS011;9974;52.146;14.668;2023-04-03T12:27:24;3.65;;;1.40;;
19651;SDS011;9974;52.146;14.668;2023-04-03T12:30:27;2.95;;;1.05;;
19651;SDS011;9974;52.146;14.668;2023-04-03T12:32:58;4.20;;;0.90;;
19651;SDS011;9974;52.146;14.668;2023-04-03T12:38:33;2.78;;;1.27;;
19651;SDS011;9974;52.146;14.668;2023-04-03T12:41:19;6.50;;;1.50;;
19651;SDS011;9974;52.146;14.668;2023-04-03T12:44:47;4.20;;;1.33;;
19651;SDS011;9974;52.146;14.668;2023-04-03T12:47:02;5.95;;;1.90;;
19651;SDS011;9974;52.146;14.668;2023-04-03T12:49:44;4.22;;;1.58;;
19651;SDS011;9974;52.146;14.668;2023-04-03T12:52:22;3.47;;;1.17;;
19651;SDS011;9974;52.146;14.668;2023-04-03T12:55:14;2.05;;;0.95;;
19651;SDS011;9974;52.146;14.668;2023-04-03T12:57:44;2.97;;;1.10;;
19651;SDS011;9974;52.146;14.668;2023-04-03T13:02:58;3.03;;;1.17;;
19651;SDS011;9974;52.146;14.668;2023-04-03T13:05:25;3.35;;;1.25;;
19651;SDS011;9974;52.146;14.668;2023-04-03T13:07:57;3.03;;;1.27;;
19651;SDS011;9974;52.146;14.668;2023-04-03T13:10:41;4.35;;;0.80;;
19651;SDS011;9974;52.146;14.668;2023-04-03T13:13:20;3.35;;;0.90;;
19651;SDS011;9974;52.146;14.668;2023-04-03T13:15:48;4.60;;;1.40;;
19651;SDS011;9974;52.146;14.668;2023-04-03T13:18:31;6.75;;;1.80;;
19651;SDS011;9974;52.146;14.668;2023-04-03T13:21:00;3.53;;;1.00;;
19651;SDS011;9974;52.146;14.668;2023-04-03T13:23:31;4.53;;;1.23;;
19651;SDS011;9974;52.146;14.668;2023-04-03T13:25:59;3.38;;;1.10;;
19651;SDS011;9974;52.146;14.668;2023-04-03T13:28:28;4.35;;;1.35;;
19651;SDS011;9974;52.146;14.668;2023-04-03T13:31:08;3.47;;;1.25;;
19651;SDS011;9974;52.146;14.668;2023-04-03T13:33:53;2.05;;;1.02;;
19651;SDS011;9974;52.146;14.668;2023-04-03T13:36:25;3.60;;;1.10;;
19651;SDS011;9974;52.146;14.668;2023-04-03T13:38:59;8.35;;;1.42;;
19651;SDS011;9974;52.146;14.668;2023-04-03T13:41:50;2.90;;;1.33;;
19651;SDS011;9974;52.146;14.668;2023-04-03T13:46:48;2.35;;;1.35;;
19651;SDS011;9974;52.146;14.668;2023-04-03T13:49:19;6.22;;;1.27;;
19651;SDS011;9974;52.146;14.668;2023-04-03T13:51:46;3.13;;;1.23;;
19651;SDS011;9974;52.146;14.668;2023-04-03T13:54:16;5.00;;;1.33;;
19651;SDS011;9974;52.146;14.668;2023-04-03T13:56:53;5.18;;;1.30;;
19651;SDS011;9974;52.146;14.668;2023-04-03T13:59:38;5.65;;;1.27;;
19651;SDS011;9974;52.146;14.668;2023-04-03T14:04:55;2.25;;;1.00;;
19651;SDS011;9974;52.146;14.668;2023-04-03T14:07:23;5.40;;;1.52;;
19651;SDS011;9974;52.146;14.668;2023-04-03T14:09:49;3.47;;;1.42;;
19651;SDS011;9974;52.146;14.668;2023-04-03T14:14:52;2.25;;;1.05;;
19651;SDS011;9974;52.146;14.668;2023-04-03T14:17:20;4.40;;;1.50;;
19651;SDS011;9974;52.146;14.668;2023-04-03T14:19:50;1.67;;;0.90;;
19651;SDS011;9974;52.146;14.668;2023-04-03T14:22:27;3.47;;;1.50;;
19651;SDS011;9974;52.146;14.668;2023-04-03T14:24:55;2.78;;;1.10;;
19651;SDS011;9974;52.146;14.668;2023-04-03T14:27:26;5.38;;;1.42;;
19651;SDS011;9974;52.146;14.668;2023-04-03T14:29:58;2.05;;;1.10;;
19651;SDS011;9974;52.146;14.668;2023-04-03T14:32:25;3.50;;;1.38;;
19651;SDS011;9974;52.146;14.668;2023-04-03T14:34:52;4.13;;;1.58;;
19651;SDS011;9974;52.146;14.668;2023-04-03T14:37:19;3.63;;;1.55;;
19651;SDS011;9974;52.146;14.668;2023-04-03T14:39:49;3.97;;;1.15;;
19651;SDS011;9974;52.146;14.668;2023-04-03T14:42:17;4.78;;;1.40;;
19651;SDS011;9974;52.146;14.668;2023-04-03T14:44:45;6.38;;;1.40;;
19651;SDS011;9974;52.146;14.668;2023-04-03T14:47:21;3.45;;;1.13;;
19651;SDS011;9974;52.146;14.668;2023-04-03T14:49:51;3.75;;;1.60;;
19651;SDS011;9974;52.146;14.668;2023-04-03T14:52:21;5.65;;;1.30;;
19651;SDS011;9974;52.146;14.668;2023-04-03T14:54:52;5.57;;;2.15;;
19651;SDS011;9974;52.146;14.668;2023-04-03T14:57:18;5.57;;;1.45;;
19651;SDS011;9974;52.146;14.668;2023-04-03T14:59:44;5.32;;;2.03;;
19651;SDS011;9974;52.146;14.668;2023-04-03T15:02:31;3.83;;;1.42;;
19651;SDS011;9974;52.146;14.668;2023-04-03T15:04:59;4.32;;;1.63;;
19651;SDS011;9974;52.146;14.668;2023-04-03T15:07:29;2.55;;;1.00;;
19651;SDS011;9974;52.146;14.668;2023-04-03T15:09:58;2.22;;;1.00;;
19651;SDS011;9974;52.146;14.668;2023-04-03T15:12:30;3.75;;;1.30;;
19651;SDS011;9974;52.146;14.668;2023-04-03T15:14:57;4.82;;;0.98;;
19651;SDS011;9974;52.146;14.668;2023-04-03T15:17:23;4.85;;;1.55;;
19651;SDS011;9974;52.146;14.668;2023-04-03T15:19:49;3.60;;;1.15;;
19651;SDS011;9974;52.146;14.668;2023-04-03T15:22:16;4.00;;;1.48;;
19651;SDS011;9974;52.146;14.668;2023-04-03T15:24:44;4.88;;;1.52;;
19651;SDS011;9974;52.146;14.668;2023-04-03T15:27:10;4.50;;;1.77;;
19651;SDS011;9974;52.146;14.668;2023-04-03T15:29:38;3.30;;;1.23;;
19651;SDS011;9974;52.146;14.668;2023-04-03T15:32:05;3.33;;;1.40;;
19651;SDS011;9974;52.146;14.668;2023-04-03T15:34:32;4.05;;;1.48;;
19651;SDS011;9974;52.146;14.668;2023-04-03T15:36:58;3.40;;;1.45;;
19651;SDS011;9974;52.146;14.668;2023-04-03T15:39:24;5.97;;;1.98;;
19651;SDS011;9974;52.146;14.668;2023-04-03T15:41:50;4.22;;;1.83;;
19651;SDS011;9974;52.146;14.668;2023-04-03T15:44:17;5.85;;;1.65;;
19651;SDS011;9974;52.146;14.668;2023-04-03T15:46:43;5.70;;;1.80;;
19651;SDS011;9974;52.146;14.668;2023-04-03T15:49:11;5.97;;;1.83;;
19651;SDS011;9974;52.146;14.668;2023-04-03T15:51:37;4.05;;;1.70;;
19651;SDS011;9974;52.146;14.668;2023-04-03T15:54:03;3.53;;;1.30;;
19651;SDS011;9974;52.146;14.668;2023-04-03T15:56:29;5.75;;;1.58;;
19651;SDS011;9974;52.146;14.668;2023-04-03T15:58:55;3.78;;;1.30;;
19651;SDS011;9974;52.146;14.668;2023-04-03T16:01:21;3.13;;;1.42;;
19651;SDS011;9974;52.146;14.668;2023-04-03T16:03:47;3.08;;;1.60;;
19651;SDS011;9974;52.146;14.668;2023-04-03T16:06:16;5.07;;;1.73;;
19651;SDS011;9974;52.146;14.668;2023-04-03T16:08:43;3.55;;;1.50;;
19651;SDS011;9974;52.146;14.668;2023-04-03T16:11:10;5.28;;;1.30;;
19651;SDS011;9974;52.146;14.668;2023-04-03T16:13:36;4.07;;;1.35;;
19651;SDS011;9974;52.146;14.668;2023-04-03T16:16:02;7.80;;;1.92;;